createdAt,value
2022-12-11T00:01:14.142Z,4.22
2022-12-11T00:03:41.774Z,4.50
2022-12-11T00:06:10.658Z,4.75
2022-12-11T00:08:37.967Z,5.30
2022-12-11T00:11:05.948Z,4.62
2022-12-11T00:13:32.775Z,5.50
2022-12-11T00:18:26.747Z,5.32
2022-12-11T00:20:53.625Z,4.87
2022-12-11T00:25:47.922Z,4.82
2022-12-11T00:28:17.031Z,4.93
2022-12-11T00:30:43.981Z,4.97
2022-12-11T00:33:11.702Z,5.53
2022-12-11T00:35:43.850Z,6.12
2022-12-11T00:38:18.075Z,5.82
2022-12-11T00:40:45.103Z,5.28
2022-12-11T00:43:12.568Z,6.43
2022-12-11T00:45:42.359Z,5.30
2022-12-11T00:48:10.156Z,6.00
2022-12-11T00:50:37.230Z,7.18
2022-12-11T00:53:05.082Z,6.53
2022-12-11T00:55:32.317Z,6.47
2022-12-11T00:57:59.162Z,6.35
2022-12-11T01:02:52.771Z,6.55
2022-12-11T01:05:19.698Z,8.13
2022-12-11T01:07:46.597Z,7.55
2022-12-11T01:10:26.258Z,7.62
2022-12-11T01:13:04.666Z,6.25
2022-12-11T01:15:38.675Z,7.95
2022-12-11T01:18:08.160Z,6.40
2022-12-11T01:20:35.211Z,6.18
2022-12-11T01:23:02.136Z,5.62
2022-12-11T01:25:29.382Z,6.70
2022-12-11T01:27:56.537Z,5.37
2022-12-11T01:30:25.310Z,6.47
2022-12-11T01:32:52.575Z,6.70
2022-12-11T01:35:20.080Z,6.30
2022-12-11T01:37:47.202Z,5.37
2022-12-11T01:40:16.188Z,6.68
2022-12-11T01:42:43.178Z,6.07
2022-12-11T01:45:16.037Z,5.55
2022-12-11T01:47:44.060Z,6.18
2022-12-11T01:50:11.782Z,6.78
2022-12-11T01:52:38.701Z,6.12
2022-12-11T01:55:06.237Z,5.75
2022-12-11T01:57:33.100Z,7.25
2022-12-11T02:02:28.790Z,6.00
2022-12-11T02:04:55.705Z,6.20
2022-12-11T02:09:49.659Z,5.37
2022-12-11T02:12:25.614Z,6.80
2022-12-11T02:15:17.727Z,6.47
2022-12-11T02:17:49.103Z,6.85
2022-12-11T02:20:29.670Z,6.40
2022-12-11T02:23:18.923Z,7.80
2022-12-11T02:26:15.653Z,6.20
2022-12-11T02:28:55.052Z,7.05
2022-12-11T02:31:37.281Z,6.85
2022-12-11T02:34:22.005Z,5.43
2022-12-11T02:36:56.091Z,6.12
2022-12-11T02:39:25.504Z,5.95
2022-12-11T02:41:52.385Z,7.20
2022-12-11T02:46:52.798Z,7.65
2022-12-11T02:49:21.328Z,7.90
2022-12-11T02:51:48.316Z,6.57
2022-12-11T02:54:21.535Z,7.05
2022-12-11T02:56:56.145Z,7.45
2022-12-11T02:59:30.432Z,7.05
2022-12-11T03:01:57.360Z,7.00
2022-12-11T03:04:25.121Z,7.80
2022-12-11T03:06:55.260Z,7.75
2022-12-11T03:09:22.405Z,8.05
2022-12-11T03:11:49.278Z,8.73
2022-12-11T03:16:55.362Z,6.57
2022-12-11T03:19:35.868Z,7.45
2022-12-11T03:22:11.880Z,8.32
2022-12-11T03:24:45.931Z,7.37
2022-12-11T03:27:42.185Z,6.97
2022-12-11T03:30:13.423Z,7.97
2022-12-11T03:33:04.755Z,8.23
2022-12-11T03:35:36.257Z,8.75
2022-12-11T03:38:07.225Z,8.35
2022-12-11T03:40:36.113Z,8.10
2022-12-11T03:43:03.498Z,8.15
2022-12-11T03:45:30.732Z,8.43
2022-12-11T03:48:00.076Z,7.90
2022-12-11T03:50:29.250Z,8.68
2022-12-11T03:52:56.316Z,8.68
2022-12-11T03:55:23.588Z,8.40
2022-12-11T03:57:50.653Z,7.40
2022-12-11T04:00:19.848Z,7.47
2022-12-11T04:03:11.359Z,6.40
2022-12-11T04:05:41.940Z,7.97
2022-12-11T04:08:08.939Z,8.02
2022-12-11T04:10:35.934Z,8.70
2022-12-11T04:13:02.839Z,8.70
2022-12-11T04:18:14.966Z,7.97
2022-12-11T04:21:00.607Z,9.10
2022-12-11T04:23:46.166Z,9.07
2022-12-11T04:26:15.765Z,8.05
2022-12-11T04:28:43.664Z,9.68
2022-12-11T04:31:15.561Z,9.57
2022-12-11T04:33:42.780Z,8.85
2022-12-11T04:36:11.054Z,9.55
2022-12-11T04:38:38.150Z,8.27
2022-12-11T04:41:12.329Z,10.60
2022-12-11T04:43:39.260Z,10.60
2022-12-11T04:46:09.119Z,11.20
2022-12-11T04:48:36.488Z,9.70
2022-12-11T04:51:04.056Z,9.80
2022-12-11T04:53:31.230Z,10.57
2022-12-11T04:55:58.208Z,12.05
2022-12-11T04:58:26.002Z,9.90
2022-12-11T05:00:53.284Z,12.63
2022-12-11T05:03:20.765Z,12.18
2022-12-11T05:05:49.520Z,12.10
2022-12-11T05:08:20.179Z,11.68
2022-12-11T05:10:59.362Z,10.65
2022-12-11T05:13:27.551Z,11.07
2022-12-11T05:15:54.910Z,10.23
2022-12-11T05:18:22.016Z,11.18
2022-12-11T05:21:00.457Z,11.10
2022-12-11T05:23:27.474Z,12.15
2022-12-11T05:25:59.925Z,9.82
2022-12-11T05:28:28.850Z,11.90
2022-12-11T05:31:00.908Z,12.07
2022-12-11T05:33:28.342Z,10.65
2022-12-11T05:35:55.330Z,11.00
2022-12-11T05:38:22.834Z,10.50
2022-12-11T05:41:00.938Z,11.27
2022-12-11T05:43:29.066Z,13.20
2022-12-11T05:45:56.777Z,11.75
2022-12-11T05:48:23.748Z,11.50
2022-12-11T05:51:01.229Z,10.23
2022-12-11T05:55:55.160Z,10.27
2022-12-11T05:58:22.116Z,13.40
2022-12-11T06:00:48.989Z,12.65
2022-12-11T06:05:43.242Z,11.70
2022-12-11T06:08:10.284Z,11.80
2022-12-11T06:10:37.404Z,10.38
2022-12-11T06:13:04.587Z,10.25
2022-12-11T06:15:31.456Z,12.45
2022-12-11T06:20:24.999Z,10.85
2022-12-11T06:25:18.598Z,12.32
2022-12-11T06:27:45.467Z,9.70
2022-12-11T06:32:39.219Z,11.77
2022-12-11T06:37:33.006Z,11.12
2022-12-11T06:42:26.565Z,11.55
2022-12-11T06:47:20.088Z,9.98
2022-12-11T06:52:18.241Z,9.32
2022-12-11T06:54:45.558Z,10.73
2022-12-11T06:57:12.429Z,10.88
2022-12-11T07:02:05.992Z,9.38
2022-12-11T07:04:33.416Z,9.57
2022-12-11T07:07:00.252Z,8.80
2022-12-11T07:11:53.859Z,8.85
2022-12-11T07:14:20.785Z,9.05
2022-12-11T07:16:47.735Z,10.32
2022-12-11T07:19:14.650Z,9.27
2022-12-11T07:24:08.368Z,10.40
2022-12-11T07:26:35.365Z,9.02
2022-12-11T07:29:02.231Z,11.68
2022-12-11T07:33:58.818Z,8.88
2022-12-11T07:36:26.422Z,8.93
2022-12-11T07:38:53.384Z,8.80
2022-12-11T07:41:20.992Z,9.13
2022-12-11T07:43:48.040Z,9.40
2022-12-11T07:46:17.666Z,10.40
2022-12-11T07:48:46.243Z,9.52
2022-12-11T07:51:23.031Z,10.10
2022-12-11T07:53:51.244Z,9.00
2022-12-11T07:56:19.465Z,9.48
2022-12-11T07:58:47.063Z,9.52
2022-12-11T08:01:29.149Z,9.30
2022-12-11T08:03:56.978Z,9.55
2022-12-11T08:06:29.547Z,9.48
2022-12-11T08:08:57.493Z,9.45
2022-12-11T08:11:25.118Z,9.60
2022-12-11T08:13:52.218Z,9.05
2022-12-11T08:16:19.841Z,8.52
2022-12-11T08:18:47.859Z,7.70
2022-12-11T08:21:17.533Z,8.70
2022-12-11T08:23:44.922Z,9.93
2022-12-11T08:26:18.500Z,8.30
2022-12-11T08:28:45.350Z,9.55
2022-12-11T08:33:40.576Z,9.38
2022-12-11T08:36:09.802Z,8.80
2022-12-11T08:38:37.092Z,7.30
2022-12-11T08:41:18.380Z,7.90
2022-12-11T08:43:45.265Z,8.50
2022-12-11T08:48:40.466Z,9.27
2022-12-11T08:51:09.532Z,8.70
2022-12-11T08:53:36.580Z,7.93
2022-12-11T08:56:05.024Z,6.87
2022-12-11T08:58:31.898Z,8.35
2022-12-11T09:03:25.652Z,8.55
2022-12-11T09:05:52.555Z,8.55
2022-12-11T09:08:19.454Z,8.70
2022-12-11T09:10:46.380Z,7.50
2022-12-11T09:15:43.034Z,8.10
2022-12-11T09:18:09.877Z,8.55
2022-12-11T09:23:03.739Z,8.75
2022-12-11T09:25:30.601Z,8.05
2022-12-11T09:30:24.176Z,6.25
2022-12-11T09:35:17.812Z,8.10
2022-12-11T09:37:44.717Z,8.20
2022-12-11T09:40:12.576Z,7.25
2022-12-11T09:42:55.474Z,6.85
2022-12-11T09:45:22.489Z,8.95
2022-12-11T09:47:52.967Z,6.78
2022-12-11T09:50:32.945Z,6.60
2022-12-11T09:53:18.134Z,6.78
2022-12-11T09:56:03.208Z,6.37
2022-12-11T09:58:39.364Z,7.43
2022-12-11T10:01:19.048Z,7.87
2022-12-11T10:03:56.156Z,6.70
2022-12-11T10:06:22.949Z,6.85
2022-12-11T10:12:05.579Z,6.10
2022-12-11T10:15:00.339Z,7.18
2022-12-11T10:17:32.823Z,5.70
2022-12-11T10:20:22.555Z,6.22
2022-12-11T10:22:50.953Z,7.12
2022-12-11T10:25:40.565Z,7.20
2022-12-11T10:28:19.205Z,5.50
2022-12-11T10:31:17.394Z,6.60
2022-12-11T10:33:50.343Z,6.70
2022-12-11T10:36:21.402Z,7.00
2022-12-11T10:38:48.269Z,6.55
2022-12-11T10:43:47.506Z,6.47
2022-12-11T10:46:21.790Z,6.90
2022-12-11T10:48:54.809Z,6.00
2022-12-11T10:51:24.822Z,6.82
2022-12-11T10:53:53.894Z,7.18
2022-12-11T10:56:28.737Z,6.20
2022-12-11T10:58:57.063Z,5.82
2022-12-11T11:01:26.201Z,6.47
2022-12-11T11:04:01.255Z,5.82
2022-12-11T11:06:28.126Z,6.32
2022-12-11T11:11:35.196Z,6.90
2022-12-11T11:14:16.389Z,6.37
2022-12-11T11:16:45.740Z,5.82
2022-12-11T11:19:24.246Z,6.87
2022-12-11T11:21:55.812Z,6.25
2022-12-11T11:24:30.665Z,7.05
2022-12-11T11:27:13.100Z,6.20
2022-12-11T11:29:41.266Z,6.20
2022-12-11T11:32:42.587Z,6.10
2022-12-11T11:35:12.527Z,7.03
2022-12-11T11:37:42.540Z,6.78
2022-12-11T11:40:17.790Z,5.80
2022-12-11T11:42:53.088Z,6.32
2022-12-11T11:45:27.145Z,5.85
2022-12-11T11:48:13.650Z,5.80
2022-12-11T11:50:45.812Z,7.78
2022-12-11T11:53:19.751Z,5.53
2022-12-11T11:56:18.863Z,5.87
2022-12-11T11:58:59.398Z,6.85
2022-12-11T12:01:27.079Z,6.95
2022-12-11T12:03:54.370Z,6.37
2022-12-11T12:06:39.941Z,6.25
2022-12-11T12:09:13.233Z,6.87
2022-12-11T12:11:52.229Z,7.20
2022-12-11T12:14:50.995Z,6.90
2022-12-11T12:17:27.380Z,6.55
2022-12-11T12:20:31.554Z,5.87
2022-12-11T12:23:16.332Z,6.70
2022-12-11T12:25:49.772Z,5.78
2022-12-11T12:28:25.537Z,5.47
2022-12-11T12:31:10.726Z,6.70
2022-12-11T12:33:56.204Z,5.72
2022-12-11T12:36:46.893Z,6.22
2022-12-11T12:42:48.674Z,6.53
2022-12-11T12:45:21.583Z,6.45
2022-12-11T12:47:53.164Z,5.25
2022-12-11T12:50:23.315Z,5.75
2022-12-11T12:52:51.581Z,6.12
2022-12-11T12:55:27.428Z,6.15
2022-12-11T12:58:00.653Z,7.28
2022-12-11T13:00:31.864Z,6.35
2022-12-11T13:03:00.621Z,5.78
2022-12-11T13:05:38.292Z,6.00
2022-12-11T13:08:06.344Z,6.40
2022-12-11T13:10:34.165Z,6.72
2022-12-11T13:13:02.347Z,6.00
2022-12-11T13:15:40.820Z,7.10
2022-12-11T13:18:31.771Z,6.28
2022-12-11T13:20:58.662Z,5.62
2022-12-11T13:26:02.381Z,6.20
2022-12-11T13:28:38.363Z,6.70
2022-12-11T13:31:14.005Z,6.40
2022-12-11T13:33:44.137Z,6.62
2022-12-11T13:36:16.687Z,6.95
2022-12-11T13:38:51.168Z,5.60
2022-12-11T13:41:18.800Z,5.93
2022-12-11T13:43:47.750Z,6.75
2022-12-11T13:46:16.288Z,6.82
2022-12-11T13:48:46.925Z,7.35
2022-12-11T13:51:17.468Z,6.15
2022-12-11T13:53:44.489Z,8.10
2022-12-11T13:56:20.266Z,6.22
2022-12-11T13:58:47.456Z,4.87
2022-12-11T14:01:23.342Z,5.43
2022-12-11T14:04:14.218Z,6.45
2022-12-11T14:06:41.198Z,7.25
2022-12-11T14:09:08.791Z,5.82
2022-12-11T14:11:38.627Z,5.10
2022-12-11T14:14:08.508Z,6.22
2022-12-11T14:16:35.488Z,6.03
2022-12-11T14:19:06.738Z,6.28
2022-12-11T14:21:33.936Z,7.80
2022-12-11T14:24:03.820Z,6.85
2022-12-11T14:26:34.351Z,6.95
2022-12-11T14:29:01.347Z,7.00
2022-12-11T14:31:37.469Z,6.22
2022-12-11T14:34:30.345Z,6.37
2022-12-11T14:36:58.234Z,7.15
2022-12-11T14:39:47.050Z,6.60
2022-12-11T14:42:25.365Z,7.25
2022-12-11T14:45:03.844Z,7.32
2022-12-11T14:47:34.746Z,6.97
2022-12-11T14:50:04.020Z,6.62
2022-12-11T14:52:34.282Z,7.07
2022-12-11T14:55:08.732Z,5.70
2022-12-11T14:57:36.351Z,7.12
2022-12-11T15:00:05.437Z,7.72
2022-12-11T15:02:34.757Z,6.30
2022-12-11T15:05:20.508Z,4.53
2022-12-11T15:07:56.951Z,5.15
2022-12-11T15:10:55.857Z,5.30
2022-12-11T15:13:25.811Z,5.57
2022-12-11T15:15:53.763Z,5.12
2022-12-11T15:18:34.657Z,5.25
2022-12-11T15:21:04.097Z,5.82
2022-12-11T15:23:31.125Z,5.55
2022-12-11T15:25:59.677Z,4.82
2022-12-11T15:28:44.762Z,5.75
2022-12-11T15:31:31.097Z,5.28
2022-12-11T15:33:58.627Z,5.12
2022-12-11T15:36:31.540Z,4.70
2022-12-11T15:38:58.691Z,4.62
2022-12-11T15:41:25.884Z,5.30
2022-12-11T15:43:58.309Z,5.30
2022-12-11T15:46:26.176Z,5.30
2022-12-11T15:48:53.171Z,4.90
2022-12-11T15:51:20.074Z,4.87
2022-12-11T15:56:17.684Z,4.87
2022-12-11T15:58:45.458Z,5.60
2022-12-11T16:01:12.453Z,4.87
2022-12-11T16:03:39.412Z,5.15
2022-12-11T16:06:06.492Z,5.07
2022-12-11T16:08:33.718Z,5.53
2022-12-11T16:11:00.650Z,6.25
2022-12-11T16:15:54.459Z,4.57
2022-12-11T16:18:23.402Z,3.95
2022-12-11T16:20:51.524Z,4.82
2022-12-11T16:23:18.851Z,5.37
2022-12-11T16:25:46.885Z,5.12
2022-12-11T16:28:15.680Z,5.20
2022-12-11T16:30:43.695Z,5.43
2022-12-11T16:33:13.223Z,5.35
2022-12-11T16:35:41.802Z,5.72
2022-12-11T16:38:10.200Z,5.47
2022-12-11T16:40:37.948Z,6.43
2022-12-11T16:43:05.626Z,4.40
2022-12-11T16:45:32.724Z,5.07
2022-12-11T16:48:03.377Z,5.07
2022-12-11T16:50:30.343Z,5.75
2022-12-11T16:52:57.511Z,5.53
2022-12-11T16:55:24.358Z,5.45
2022-12-11T17:00:18.084Z,4.70
2022-12-11T17:02:45.034Z,5.53
2022-12-11T17:05:12.386Z,4.30
2022-12-11T17:07:40.478Z,5.00
2022-12-11T17:10:07.992Z,5.15
2022-12-11T17:12:35.139Z,5.57
2022-12-11T17:15:02.030Z,4.75
2022-12-11T17:19:55.771Z,4.93
2022-12-11T17:22:22.875Z,5.72
2022-12-11T17:24:49.837Z,4.60
2022-12-11T17:27:16.728Z,6.25
2022-12-11T17:32:10.274Z,5.28
2022-12-11T17:37:06.242Z,4.62
2022-12-11T17:39:33.544Z,5.87
2022-12-11T17:42:00.627Z,5.43
2022-12-11T17:44:30.681Z,4.68
2022-12-11T17:46:58.502Z,5.90
2022-12-11T17:49:25.446Z,4.97
2022-12-11T17:51:53.409Z,5.37
2022-12-11T17:54:20.355Z,6.00
2022-12-11T17:56:47.337Z,4.05
2022-12-11T17:59:14.200Z,5.35
2022-12-11T18:04:07.884Z,5.10
2022-12-11T18:06:34.826Z,4.78
2022-12-11T18:09:01.704Z,4.70
2022-12-11T18:13:55.327Z,8.43
2022-12-11T18:16:28.029Z,4.82
2022-12-11T18:18:56.612Z,4.75
2022-12-11T18:21:26.197Z,4.85
2022-12-11T18:23:53.370Z,5.45
2022-12-11T18:26:20.695Z,5.55
2022-12-11T18:28:48.233Z,5.32
2022-12-11T18:31:15.281Z,5.07
2022-12-11T18:33:43.568Z,4.60
2022-12-11T18:36:11.771Z,4.78
2022-12-11T18:38:39.212Z,5.37
2022-12-11T18:41:08.234Z,5.37
2022-12-11T18:43:35.781Z,5.00
2022-12-11T18:46:14.525Z,4.75
2022-12-11T18:48:42.326Z,5.00
2022-12-11T18:51:12.378Z,4.12
2022-12-11T18:53:42.012Z,4.40
2022-12-11T18:56:11.221Z,4.87
2022-12-11T18:58:38.358Z,3.83
2022-12-11T19:01:25.877Z,6.43
2022-12-11T19:04:03.591Z,3.75
2022-12-11T19:06:33.325Z,4.60
2022-12-11T19:09:00.591Z,3.75
2022-12-11T19:11:29.679Z,4.37
2022-12-11T19:13:56.961Z,4.18
2022-12-11T19:16:40.617Z,5.70
2022-12-11T19:19:12.525Z,4.32
2022-12-11T19:21:39.721Z,5.68
2022-12-11T19:24:08.453Z,5.10
2022-12-11T19:26:35.771Z,5.40
2022-12-11T19:29:03.161Z,5.40
2022-12-11T19:31:31.602Z,3.47
2022-12-11T19:33:59.901Z,4.45
2022-12-11T19:36:28.016Z,5.25
2022-12-11T19:39:01.138Z,4.15
2022-12-11T19:41:28.710Z,4.70
2022-12-11T19:43:57.087Z,4.57
2022-12-11T19:46:24.943Z,4.50
2022-12-11T19:48:54.297Z,4.55
2022-12-11T19:51:29.844Z,4.57
2022-12-11T19:53:57.393Z,5.45
2022-12-11T19:56:24.320Z,4.03
2022-12-11T19:58:51.225Z,4.03
2022-12-11T20:01:19.807Z,4.55
2022-12-11T20:03:46.742Z,3.87
2022-12-11T20:08:45.714Z,4.55
2022-12-11T20:11:17.825Z,4.28
2022-12-11T20:13:46.190Z,4.37
2022-12-11T20:16:13.756Z,4.00
2022-12-11T20:18:40.818Z,3.62
2022-12-11T20:21:10.095Z,4.35
2022-12-11T20:23:36.967Z,4.07
2022-12-11T20:28:34.400Z,4.85
2022-12-11T20:33:43.626Z,3.97
2022-12-11T20:36:12.950Z,5.20
2022-12-11T20:38:40.347Z,5.07
2022-12-11T20:41:10.787Z,4.32
2022-12-11T20:43:38.008Z,4.30
2022-12-11T20:46:10.044Z,4.05
2022-12-11T20:48:37.423Z,4.57
2022-12-11T20:51:06.442Z,4.65
2022-12-11T20:53:35.098Z,3.87
2022-12-11T20:56:02.400Z,4.65
2022-12-11T20:58:29.255Z,3.62
2022-12-11T21:03:22.924Z,4.40
2022-12-11T21:05:49.804Z,4.43
2022-12-11T21:10:44.841Z,4.47
2022-12-11T21:13:11.738Z,3.97
2022-12-11T21:15:39.370Z,4.60
2022-12-11T21:18:07.374Z,3.78
2022-12-11T21:20:35.052Z,3.65
2022-12-11T21:23:02.789Z,3.87
2022-12-11T21:25:29.679Z,4.03
2022-12-11T21:27:56.523Z,3.97
2022-12-11T21:32:50.165Z,4.75
2022-12-11T21:37:43.818Z,3.72
2022-12-11T21:40:11.146Z,3.33
2022-12-11T21:42:37.992Z,3.83
2022-12-11T21:47:52.053Z,4.30
2022-12-11T21:50:19.115Z,4.45
2022-12-11T21:52:45.970Z,3.83
2022-12-11T21:57:40.188Z,3.70
2022-12-11T22:02:37.557Z,3.75
2022-12-11T22:05:08.096Z,4.20
2022-12-11T22:07:34.993Z,4.78
2022-12-11T22:10:02.127Z,4.25
2022-12-11T22:12:29.708Z,3.58
2022-12-11T22:14:56.703Z,4.30
2022-12-11T22:17:24.016Z,4.57
2022-12-11T22:19:53.803Z,5.12
2022-12-11T22:22:20.692Z,3.53
2022-12-11T22:24:47.886Z,4.28
2022-12-11T22:27:19.067Z,4.00
2022-12-11T22:29:48.925Z,4.00
2022-12-11T22:32:15.799Z,4.75
2022-12-11T22:37:09.412Z,3.92
2022-12-11T22:39:36.271Z,4.10
2022-12-11T22:44:30.274Z,4.32
2022-12-11T22:49:24.495Z,3.28
2022-12-11T22:51:51.384Z,3.20
2022-12-11T22:56:44.925Z,4.78
2022-12-11T22:59:11.836Z,4.93
2022-12-11T23:04:05.625Z,5.45
2022-12-11T23:06:32.635Z,5.35
2022-12-11T23:09:00.497Z,5.25
2022-12-11T23:11:30.175Z,5.45
2022-12-11T23:13:57.533Z,5.05
2022-12-11T23:16:26.053Z,5.53
2022-12-11T23:18:53.771Z,5.45
2022-12-11T23:21:21.978Z,5.65
2022-12-11T23:23:49.285Z,5.68
2022-12-11T23:26:18.849Z,4.80
2022-12-11T23:28:46.926Z,5.00
2022-12-11T23:31:14.343Z,5.50
2022-12-11T23:33:41.413Z,6.32
2022-12-11T23:36:09.218Z,4.80
2022-12-11T23:38:36.495Z,5.72
2022-12-11T23:41:04.201Z,5.65
2022-12-11T23:43:31.068Z,5.87
2022-12-11T23:48:24.866Z,6.07
2022-12-11T23:50:52.053Z,4.55
2022-12-11T23:53:18.976Z,6.00
2022-12-11T23:55:45.962Z,5.85
2022-12-11T23:58:12.857Z,5.35
